createdAt,value
2022-12-31T00:05:00.688Z,9.74
2022-12-31T00:10:04.661Z,8.30
2022-12-31T00:15:07.906Z,9.38
2022-12-31T00:20:11.655Z,9.78
2022-12-31T00:25:14.452Z,8.60
2022-12-31T00:30:17.340Z,8.45
2022-12-31T00:35:20.160Z,9.25
2022-12-31T00:40:23.063Z,9.78
2022-12-31T00:45:25.967Z,9.07
2022-12-31T00:50:28.768Z,8.50
2022-12-31T00:55:31.587Z,9.51
2022-12-31T01:00:34.372Z,9.77
2022-12-31T01:05:38.415Z,8.19
2022-12-31T01:11:00.655Z,8.51
2022-12-31T01:16:12.159Z,9.80
2022-12-31T01:21:15.885Z,8.54
2022-12-31T01:26:19.681Z,8.50
2022-12-31T01:31:24.317Z,9.74
2022-12-31T01:36:29.859Z,9.12
2022-12-31T01:41:35.604Z,7.87
2022-12-31T01:46:52.319Z,8.62
2022-12-31T01:52:00.467Z,9.55
2022-12-31T01:57:05.357Z,9.40
2022-12-31T02:02:08.451Z,8.01
2022-12-31T02:07:12.191Z,8.96
2022-12-31T02:12:15.852Z,10.30
2022-12-31T02:17:37.499Z,9.10
2022-12-31T02:23:13.593Z,7.88
2022-12-31T02:28:29.184Z,9.21
2022-12-31T02:33:52.556Z,9.67
2022-12-31T02:38:57.610Z,8.50
2022-12-31T02:44:00.726Z,9.82
2022-12-31T02:49:45.324Z,9.12
2022-12-31T02:55:11.507Z,8.72
2022-12-31T03:00:35.803Z,10.00
2022-12-31T03:05:43.447Z,9.02
2022-12-31T03:10:46.183Z,8.97
2022-12-31T03:15:49.586Z,9.48
2022-12-31T03:21:11.343Z,9.78
2022-12-31T03:26:14.076Z,9.87
2022-12-31T03:31:16.981Z,10.12
2022-12-31T03:36:19.855Z,9.89
2022-12-31T03:41:22.663Z,9.17
2022-12-31T03:46:25.459Z,9.75
2022-12-31T03:51:28.296Z,10.18
2022-12-31T03:56:31.044Z,10.01
2022-12-31T04:01:33.988Z,10.24
2022-12-31T04:06:36.876Z,10.33
2022-12-31T04:11:39.678Z,9.42
2022-12-31T04:16:42.625Z,10.43
2022-12-31T04:21:45.475Z,10.81
2022-12-31T04:26:48.377Z,9.72
2022-12-31T04:31:51.318Z,10.11
2022-12-31T04:36:54.196Z,10.68
2022-12-31T04:41:56.948Z,10.83
2022-12-31T04:46:59.722Z,10.76
2022-12-31T04:52:03.361Z,11.03
2022-12-31T04:57:06.645Z,10.79
2022-12-31T05:02:10.056Z,11.07
2022-12-31T05:07:13.048Z,10.62
2022-12-31T05:12:15.847Z,10.45
2022-12-31T05:17:20.900Z,10.41
2022-12-31T05:22:29.648Z,10.10
2022-12-31T05:27:32.528Z,9.87
2022-12-31T05:32:35.687Z,9.82
2022-12-31T05:37:39.314Z,9.82
2022-12-31T05:42:42.064Z,9.68
2022-12-31T05:47:45.343Z,10.11
2022-12-31T05:52:48.299Z,10.06
2022-12-31T05:57:51.098Z,10.14
2022-12-31T06:02:53.964Z,10.19
2022-12-31T06:07:56.907Z,10.24
2022-12-31T06:12:59.903Z,10.50
2022-12-31T06:18:02.664Z,10.74
2022-12-31T06:23:06.144Z,10.98
2022-12-31T06:28:12.183Z,11.15
2022-12-31T06:33:20.781Z,11.27
2022-12-31T06:38:26.107Z,11.33
2022-12-31T06:43:28.832Z,11.02
2022-12-31T06:48:32.102Z,11.12
2022-12-31T06:53:34.908Z,11.44
2022-12-31T06:58:38.377Z,11.53
2022-12-31T07:03:58.754Z,11.26
2022-12-31T07:09:06.061Z,11.26
2022-12-31T07:14:30.885Z,11.14
2022-12-31T07:19:46.080Z,10.81
2022-12-31T07:24:49.475Z,11.34
2022-12-31T07:30:15.143Z,11.64
2022-12-31T07:35:35.449Z,11.64
2022-12-31T07:41:23.297Z,11.79
2022-12-31T07:46:39.538Z,11.85
2022-12-31T07:51:42.875Z,11.69
2022-12-31T07:56:46.133Z,11.95
2022-12-31T08:02:14.592Z,11.65
2022-12-31T08:07:47.355Z,11.75
2022-12-31T08:12:50.705Z,11.34
2022-12-31T08:17:54.424Z,11.35
2022-12-31T08:23:25.926Z,11.55
2022-12-31T08:29:17.468Z,11.35
2022-12-31T08:34:49.505Z,11.55
2022-12-31T08:40:11.231Z,11.68
2022-12-31T08:45:25.129Z,11.34
2022-12-31T08:50:29.219Z,11.42
2022-12-31T08:55:32.582Z,11.30
2022-12-31T09:00:36.572Z,11.47
2022-12-31T09:05:55.193Z,11.58
2022-12-31T09:11:22.948Z,11.78
2022-12-31T09:16:51.513Z,11.75
2022-12-31T09:21:55.456Z,11.74
2022-12-31T09:27:28.041Z,11.82
2022-12-31T09:33:07.764Z,11.97
2022-12-31T09:38:30.937Z,12.32
2022-12-31T09:43:45.263Z,13.21
2022-12-31T09:49:06.425Z,12.77
2022-12-31T09:54:39.706Z,12.93
2022-12-31T10:00:20.489Z,12.80
2022-12-31T10:06:01.117Z,12.52
2022-12-31T10:11:06.400Z,12.39
2022-12-31T10:16:18.653Z,12.63
2022-12-31T10:21:30.825Z,12.47
2022-12-31T10:26:41.865Z,12.33
2022-12-31T10:32:14.313Z,12.45
2022-12-31T10:37:38.518Z,12.72
2022-12-31T10:43:08.172Z,12.71
2022-12-31T10:48:41.687Z,12.93
2022-12-31T10:54:06.222Z,12.93
2022-12-31T10:59:09.301Z,12.90
2022-12-31T11:04:45.607Z,12.59
2022-12-31T11:10:13.539Z,12.79
2022-12-31T11:15:22.488Z,13.33
2022-12-31T11:21:03.437Z,13.27
2022-12-31T11:26:12.972Z,13.26
2022-12-31T11:31:15.752Z,13.36
2022-12-31T11:36:38.644Z,13.34
2022-12-31T11:42:27.099Z,13.65
2022-12-31T11:47:56.544Z,13.29
2022-12-31T11:53:24.039Z,13.16
2022-12-31T11:58:29.005Z,13.00
2022-12-31T12:03:32.176Z,13.07
2022-12-31T12:08:36.038Z,13.08
2022-12-31T12:13:38.914Z,13.59
2022-12-31T12:18:44.671Z,13.37
2022-12-31T12:24:05.309Z,13.41
2022-12-31T12:29:22.351Z,13.53
2022-12-31T12:34:28.529Z,14.10
2022-12-31T12:39:33.803Z,13.92
2022-12-31T12:44:36.704Z,14.05
2022-12-31T12:49:42.157Z,14.25
2022-12-31T12:55:06.953Z,14.08
2022-12-31T13:00:18.408Z,13.82
2022-12-31T13:05:43.199Z,13.99
2022-12-31T13:10:58.702Z,13.66
2022-12-31T13:16:18.462Z,13.59
2022-12-31T13:21:49.166Z,13.84
2022-12-31T13:26:58.697Z,13.70
2022-12-31T13:32:03.390Z,13.40
2022-12-31T13:37:22.473Z,14.06
2022-12-31T13:42:32.902Z,14.56
2022-12-31T13:47:43.088Z,14.68
2022-12-31T13:52:54.693Z,14.64
2022-12-31T13:58:19.617Z,14.68
2022-12-31T14:03:44.339Z,14.57
2022-12-31T14:08:47.141Z,14.81
2022-12-31T14:14:13.843Z,14.34
2022-12-31T14:19:16.661Z,14.69
2022-12-31T14:24:43.189Z,14.64
2022-12-31T14:29:51.081Z,14.92
2022-12-31T14:35:25.319Z,15.18
2022-12-31T14:40:43.886Z,14.93
2022-12-31T14:46:09.850Z,14.88
2022-12-31T14:51:13.591Z,14.98
2022-12-31T14:56:45.868Z,14.99
2022-12-31T15:01:48.816Z,14.84
2022-12-31T15:07:02.120Z,15.06
2022-12-31T15:12:19.247Z,15.05
2022-12-31T15:17:28.691Z,15.34
2022-12-31T15:22:40.374Z,15.39
2022-12-31T15:27:47.085Z,15.60
2022-12-31T15:32:50.009Z,15.17
2022-12-31T15:38:01.849Z,15.33
2022-12-31T15:43:21.387Z,15.57
2022-12-31T15:48:26.829Z,15.69
2022-12-31T15:53:34.648Z,15.87
2022-12-31T15:58:38.248Z,16.26
2022-12-31T16:03:48.108Z,16.03
2022-12-31T16:08:51.306Z,15.74
2022-12-31T16:13:56.566Z,15.81
2022-12-31T16:19:00.343Z,15.99
2022-12-31T16:24:06.459Z,16.14
2022-12-31T16:29:15.103Z,16.26
2022-12-31T16:34:22.222Z,16.39
2022-12-31T16:39:26.768Z,16.33
2022-12-31T16:44:30.660Z,16.37
2022-12-31T16:49:37.983Z,16.57
2022-12-31T16:54:46.984Z,16.68
2022-12-31T16:59:54.830Z,16.62
2022-12-31T17:04:57.751Z,16.60
2022-12-31T17:10:15.617Z,16.60
2022-12-31T17:15:26.603Z,16.61
2022-12-31T17:20:32.814Z,16.73
2022-12-31T17:25:38.666Z,16.57
2022-12-31T17:30:41.663Z,16.59
2022-12-31T17:35:45.655Z,16.61
2022-12-31T17:41:05.424Z,16.36
2022-12-31T17:46:16.905Z,16.08
2022-12-31T17:51:24.154Z,15.92
2022-12-31T17:56:27.555Z,15.96
2022-12-31T18:01:31.251Z,15.85
2022-12-31T18:06:34.112Z,16.05
2022-12-31T18:11:38.330Z,15.87
2022-12-31T18:16:41.840Z,15.94
2022-12-31T18:21:45.136Z,15.82
2022-12-31T18:26:47.848Z,15.66
2022-12-31T18:31:50.900Z,15.51
2022-12-31T18:36:53.763Z,15.35
2022-12-31T18:41:56.626Z,15.64
2022-12-31T18:46:59.429Z,15.61
2022-12-31T18:52:02.153Z,15.47
2022-12-31T18:57:04.877Z,15.60
2022-12-31T19:02:15.856Z,15.72
2022-12-31T19:07:18.740Z,15.66
2022-12-31T19:12:21.628Z,15.55
2022-12-31T19:17:24.531Z,15.50
2022-12-31T19:22:27.284Z,15.67
2022-12-31T19:27:30.001Z,15.73
2022-12-31T19:32:32.697Z,15.75
2022-12-31T19:37:35.632Z,15.64
2022-12-31T19:42:38.436Z,15.65
2022-12-31T19:47:41.236Z,15.76
2022-12-31T19:52:45.616Z,15.75
2022-12-31T19:57:49.007Z,15.75
2022-12-31T20:02:51.956Z,15.77
2022-12-31T20:07:55.003Z,15.87
2022-12-31T20:12:58.516Z,15.95
2022-12-31T20:18:01.400Z,15.76
2022-12-31T20:23:04.199Z,15.81
2022-12-31T20:28:07.007Z,15.92
2022-12-31T20:33:12.136Z,15.87
2022-12-31T20:38:19.288Z,15.93
2022-12-31T20:43:22.060Z,16.18
2022-12-31T20:48:24.817Z,16.17
2022-12-31T20:53:28.037Z,16.22
2022-12-31T20:58:31.006Z,16.18
2022-12-31T21:09:01.309Z,16.32
2022-12-31T21:14:04.910Z,16.17
2022-12-31T21:19:07.589Z,16.03
2022-12-31T21:24:10.853Z,15.97
2022-12-31T21:29:13.590Z,16.00
2022-12-31T21:34:16.840Z,15.95
2022-12-31T21:39:19.635Z,15.94
2022-12-31T21:44:24.625Z,16.07
2022-12-31T21:49:27.321Z,16.13
2022-12-31T21:54:48.546Z,16.34
2022-12-31T22:00:40.332Z,16.37
2022-12-31T22:05:32.625Z,16.40
2022-12-31T22:10:37.409Z,16.47
2022-12-31T22:15:45.980Z,16.53
2022-12-31T22:20:49.027Z,16.74
2022-12-31T22:25:51.826Z,16.79
2022-12-31T22:30:54.683Z,16.85
2022-12-31T22:36:03.290Z,17.05
2022-12-31T22:41:10.905Z,17.17
2022-12-31T22:46:16.530Z,16.98
2022-12-31T22:51:20.285Z,17.05
2022-12-31T22:56:23.009Z,17.07
2022-12-31T23:01:25.780Z,17.16
2022-12-31T23:06:29.293Z,17.29
2022-12-31T23:11:34.456Z,17.38
2022-12-31T23:16:56.169Z,17.38
2022-12-31T23:22:17.629Z,17.65
2022-12-31T23:27:20.314Z,17.54
2022-12-31T23:32:23.146Z,17.74
2022-12-31T23:37:25.901Z,17.86
2022-12-31T23:42:28.675Z,17.90
2022-12-31T23:47:31.625Z,17.89
2022-12-31T23:52:34.333Z,18.06
2022-12-31T23:57:37.564Z,18.06
